sensor_id;sensor_type;location;lat;lon;timestamp;temperature;humidity
22984;DHT22;11658;48.908;9.140;2023-08-24T04:03:23;19.30;99.90
22984;DHT22;11658;48.908;9.140;2023-08-24T04:05:48;19.40;99.90
22984;DHT22;11658;48.908;9.140;2023-08-24T04:08:14;19.50;99.90
22984;DHT22;11658;48.908;9.140;2023-08-24T04:10:40;19.60;99.90
22984;DHT22;11658;48.908;9.140;2023-08-24T04:13:05;19.60;99.90
22984;DHT22;11658;48.908;9.140;2023-08-24T04:15:31;19.70;99.90
22984;DHT22;11658;48.908;9.140;2023-08-24T04:17:56;19.80;99.90
22984;DHT22;11658;48.908;9.140;2023-08-24T04:20:22;19.70;99.90
22984;DHT22;11658;48.908;9.140;2023-08-24T04:22:47;19.70;99.90
22984;DHT22;11658;48.908;9.140;2023-08-24T04:25:13;19.80;99.90
22984;DHT22;11658;48.908;9.140;2023-08-24T04:27:38;19.80;99.90
22984;DHT22;11658;48.908;9.140;2023-08-24T04:30:04;19.80;99.90
22984;DHT22;11658;48.908;9.140;2023-08-24T04:32:32;19.80;99.90
22984;DHT22;11658;48.908;9.140;2023-08-24T04:34:58;19.80;99.90
22984;DHT22;11658;48.908;9.140;2023-08-24T04:37:23;19.80;99.90
22984;DHT22;11658;48.908;9.140;2023-08-24T04:39:49;19.90;99.90
22984;DHT22;11658;48.908;9.140;2023-08-24T04:42:15;19.80;99.90
22984;DHT22;11658;48.908;9.140;2023-08-24T04:44:40;19.90;99.90
22984;DHT22;11658;48.908;9.140;2023-08-24T04:47:06;19.70;99.90
22984;DHT22;11658;48.908;9.140;2023-08-24T04:49:32;19.50;99.90
22984;DHT22;11658;48.908;9.140;2023-08-24T04:51:58;19.40;99.90
22984;DHT22;11658;48.908;9.140;2023-08-24T04:54:23;19.40;99.90
22984;DHT22;11658;48.908;9.140;2023-08-24T04:56:49;19.40;99.90
22984;DHT22;11658;48.908;9.140;2023-08-24T04:59:15;19.40;99.90
22984;DHT22;11658;48.908;9.140;2023-08-24T05:01:40;19.50;99.90
22984;DHT22;11658;48.908;9.140;2023-08-24T05:04:06;19.50;99.90
22984;DHT22;11658;48.908;9.140;2023-08-24T05:06:31;19.60;99.90
22984;DHT22;11658;48.908;9.140;2023-08-24T05:08:57;19.70;99.90
22984;DHT22;11658;48.908;9.140;2023-08-24T05:11:24;19.80;99.90
22984;DHT22;11658;48.908;9.140;2023-08-24T05:13:50;19.80;99.90
22984;DHT22;11658;48.908;9.140;2023-08-24T05:16:15;20.00;99.90
22984;DHT22;11658;48.908;9.140;2023-08-24T05:18:41;20.10;99.90
22984;DHT22;11658;48.908;9.140;2023-08-24T05:21:07;20.20;99.90
22984;DHT22;11658;48.908;9.140;2023-08-24T05:23:33;20.20;99.90
22984;DHT22;11658;48.908;9.140;2023-08-24T05:26:00;20.40;99.90
22984;DHT22;11658;48.908;9.140;2023-08-24T05:28:27;20.40;99.90
22984;DHT22;11658;48.908;9.140;2023-08-24T05:30:53;20.50;99.90
22984;DHT22;11658;48.908;9.140;2023-08-24T05:33:23;20.60;99.90
22984;DHT22;11658;48.908;9.140;2023-08-24T05:35:50;20.80;99.90
22984;DHT22;11658;48.908;9.140;2023-08-24T05:38:16;20.90;99.90
22984;DHT22;11658;48.908;9.140;2023-08-24T05:40:48;21.00;99.90
22984;DHT22;11658;48.908;9.140;2023-08-24T05:43:14;21.20;99.90
22984;DHT22;11658;48.908;9.140;2023-08-24T05:45:40;21.40;99.90
22984;DHT22;11658;48.908;9.140;2023-08-24T05:48:09;21.50;99.90
22984;DHT22;11658;48.908;9.140;2023-08-24T05:50:34;21.70;99.90
22984;DHT22;11658;48.908;9.140;2023-08-24T05:53:00;21.80;99.90
22984;DHT22;11658;48.908;9.140;2023-08-24T05:55:25;21.90;99.90
22984;DHT22;11658;48.908;9.140;2023-08-24T05:57:51;22.00;99.90
22984;DHT22;11658;48.908;9.140;2023-08-24T06:00:17;22.10;99.90
22984;DHT22;11658;48.908;9.140;2023-08-24T06:02:42;22.40;99.90
22984;DHT22;11658;48.908;9.140;2023-08-24T06:05:08;22.40;99.90
22984;DHT22;11658;48.908;9.140;2023-08-24T06:07:35;22.60;99.90
22984;DHT22;11658;48.908;9.140;2023-08-24T06:10:01;22.90;99.90
22984;DHT22;11658;48.908;9.140;2023-08-24T06:12:27;23.00;99.90
22984;DHT22;11658;48.908;9.140;2023-08-24T06:14:52;23.10;99.90
22984;DHT22;11658;48.908;9.140;2023-08-24T06:17:18;23.20;99.90
22984;DHT22;11658;48.908;9.140;2023-08-24T06:19:43;23.20;99.90
22984;DHT22;11658;48.908;9.140;2023-08-24T06:22:09;23.40;99.90
22984;DHT22;11658;48.908;9.140;2023-08-24T06:24:35;23.50;99.90
22984;DHT22;11658;48.908;9.140;2023-08-24T06:27:01;23.60;99.90
22984;DHT22;11658;48.908;9.140;2023-08-24T06:29:30;23.70;99.90
22984;DHT22;11658;48.908;9.140;2023-08-24T06:31:55;23.80;99.90
22984;DHT22;11658;48.908;9.140;2023-08-24T06:34:22;23.80;99.90
22984;DHT22;11658;48.908;9.140;2023-08-24T06:36:47;23.80;99.90
22984;DHT22;11658;48.908;9.140;2023-08-24T06:39:13;23.70;99.90
22984;DHT22;11658;48.908;9.140;2023-08-24T06:41:39;23.60;99.90
22984;DHT22;11658;48.908;9.140;2023-08-24T06:44:04;22.90;99.90
22984;DHT22;11658;48.908;9.140;2023-08-24T06:46:31;22.00;99.90
22984;DHT22;11658;48.908;9.140;2023-08-24T06:48:56;21.20;99.90
22984;DHT22;11658;48.908;9.140;2023-08-24T06:51:22;20.80;99.90
22984;DHT22;11658;48.908;9.140;2023-08-24T06:53:48;20.50;99.90
22984;DHT22;11658;48.908;9.140;2023-08-24T06:56:14;20.60;99.90
22984;DHT22;11658;48.908;9.140;2023-08-24T06:58:47;20.60;99.90
22984;DHT22;11658;48.908;9.140;2023-08-24T07:01:13;20.70;99.90
22984;DHT22;11658;48.908;9.140;2023-08-24T07:03:38;21.00;99.90
22984;DHT22;11658;48.908;9.140;2023-08-24T07:06:07;21.30;99.90
22984;DHT22;11658;48.908;9.140;2023-08-24T07:08:34;21.70;99.90
22984;DHT22;11658;48.908;9.140;2023-08-24T07:11:02;22.00;99.90
22984;DHT22;11658;48.908;9.140;2023-08-24T07:13:28;22.20;99.90
22984;DHT22;11658;48.908;9.140;2023-08-24T07:15:54;22.20;99.90
22984;DHT22;11658;48.908;9.140;2023-08-24T07:18:20;22.10;99.90
22984;DHT22;11658;48.908;9.140;2023-08-24T07:20:46;22.10;99.90
22984;DHT22;11658;48.908;9.140;2023-08-24T07:23:12;22.20;99.90
22984;DHT22;11658;48.908;9.140;2023-08-24T07:25:37;22.30;99.90
22984;DHT22;11658;48.908;9.140;2023-08-24T07:28:03;22.50;99.90
22984;DHT22;11658;48.908;9.140;2023-08-24T07:30:30;22.60;99.90
22984;DHT22;11658;48.908;9.140;2023-08-24T07:32:56;22.70;99.90
22984;DHT22;11658;48.908;9.140;2023-08-24T07:35:22;22.80;99.90
22984;DHT22;11658;48.908;9.140;2023-08-24T07:37:50;22.80;99.90
22984;DHT22;11658;48.908;9.140;2023-08-24T07:40:16;22.70;99.90
22984;DHT22;11658;48.908;9.140;2023-08-24T07:42:46;22.60;99.90
22984;DHT22;11658;48.908;9.140;2023-08-24T07:45:12;22.60;99.90
22984;DHT22;11658;48.908;9.140;2023-08-24T07:47:39;22.80;99.90
22984;DHT22;11658;48.908;9.140;2023-08-24T07:50:05;23.20;99.90
22984;DHT22;11658;48.908;9.140;2023-08-24T07:52:32;23.20;99.90
22984;DHT22;11658;48.908;9.140;2023-08-24T07:54:58;23.10;99.90
22984;DHT22;11658;48.908;9.140;2023-08-24T07:57:25;22.80;99.90
22984;DHT22;11658;48.908;9.140;2023-08-24T07:59:54;22.80;99.90
22984;DHT22;11658;48.908;9.140;2023-08-24T08:02:19;22.90;99.90
22984;DHT22;11658;48.908;9.140;2023-08-24T08:04:46;23.10;99.90
22984;DHT22;11658;48.908;9.140;2023-08-24T08:07:11;23.30;99.90
22984;DHT22;11658;48.908;9.140;2023-08-24T08:09:37;23.50;99.90
22984;DHT22;11658;48.908;9.140;2023-08-24T08:12:03;23.70;99.90
22984;DHT22;11658;48.908;9.140;2023-08-24T08:14:29;23.90;99.90
22984;DHT22;11658;48.908;9.140;2023-08-24T08:16:56;24.00;99.90
22984;DHT22;11658;48.908;9.140;2023-08-24T08:19:21;24.40;99.90
22984;DHT22;11658;48.908;9.140;2023-08-24T08:21:47;24.60;99.90
22984;DHT22;11658;48.908;9.140;2023-08-24T08:24:13;24.40;99.90
22984;DHT22;11658;48.908;9.140;2023-08-24T08:26:38;24.40;99.90
22984;DHT22;11658;48.908;9.140;2023-08-24T08:29:04;24.60;99.90
22984;DHT22;11658;48.908;9.140;2023-08-24T08:31:30;24.70;99.90
22984;DHT22;11658;48.908;9.140;2023-08-24T08:33:56;24.80;99.90
22984;DHT22;11658;48.908;9.140;2023-08-24T08:36:22;24.90;99.90
22984;DHT22;11658;48.908;9.140;2023-08-24T08:38:47;24.90;99.90
22984;DHT22;11658;48.908;9.140;2023-08-24T08:41:15;24.90;99.90
22984;DHT22;11658;48.908;9.140;2023-08-24T08:43:42;24.80;99.90
22984;DHT22;11658;48.908;9.140;2023-08-24T08:46:08;24.70;99.90
22984;DHT22;11658;48.908;9.140;2023-08-24T08:48:36;24.80;99.90
22984;DHT22;11658;48.908;9.140;2023-08-24T08:51:06;24.90;99.90
22984;DHT22;11658;48.908;9.140;2023-08-24T08:53:32;25.10;99.90
22984;DHT22;11658;48.908;9.140;2023-08-24T08:55:58;25.30;99.90
22984;DHT22;11658;48.908;9.140;2023-08-24T08:58:29;25.40;99.90
22984;DHT22;11658;48.908;9.140;2023-08-24T09:00:55;25.60;99.90
22984;DHT22;11658;48.908;9.140;2023-08-24T09:03:21;25.50;99.90
22984;DHT22;11658;48.908;9.140;2023-08-24T09:05:46;25.50;99.90
22984;DHT22;11658;48.908;9.140;2023-08-24T09:08:18;25.60;99.90
22984;DHT22;11658;48.908;9.140;2023-08-24T09:10:44;25.70;99.90
22984;DHT22;11658;48.908;9.140;2023-08-24T09:13:10;25.80;99.90
22984;DHT22;11658;48.908;9.140;2023-08-24T09:15:36;25.70;99.90
22984;DHT22;11658;48.908;9.140;2023-08-24T09:18:05;25.80;99.90
22984;DHT22;11658;48.908;9.140;2023-08-24T09:20:30;26.00;99.90
22984;DHT22;11658;48.908;9.140;2023-08-24T09:22:56;26.20;99.90
22984;DHT22;11658;48.908;9.140;2023-08-24T09:25:26;26.10;99.90
22984;DHT22;11658;48.908;9.140;2023-08-24T09:28:04;26.20;99.90
22984;DHT22;11658;48.908;9.140;2023-08-24T09:30:31;26.20;99.90
22984;DHT22;11658;48.908;9.140;2023-08-24T09:33:10;26.20;99.90
22984;DHT22;11658;48.908;9.140;2023-08-24T09:35:36;26.30;99.90
22984;DHT22;11658;48.908;9.140;2023-08-24T09:38:21;26.30;99.90
22984;DHT22;11658;48.908;9.140;2023-08-24T09:40:50;26.30;99.90
22984;DHT22;11658;48.908;9.140;2023-08-24T09:43:17;26.40;99.90
22984;DHT22;11658;48.908;9.140;2023-08-24T09:45:56;26.50;99.90
22984;DHT22;11658;48.908;9.140;2023-08-24T09:48:23;26.70;99.90
22984;DHT22;11658;48.908;9.140;2023-08-24T09:50:50;26.70;99.90
22984;DHT22;11658;48.908;9.140;2023-08-24T09:53:25;27.00;99.90
22984;DHT22;11658;48.908;9.140;2023-08-24T09:55:59;27.10;99.90
22984;DHT22;11658;48.908;9.140;2023-08-24T09:58:26;27.30;99.90
22984;DHT22;11658;48.908;9.140;2023-08-24T10:00:52;27.50;99.90
22984;DHT22;11658;48.908;9.140;2023-08-24T10:03:20;27.70;99.90
22984;DHT22;11658;48.908;9.140;2023-08-24T10:05:56;27.80;99.90
22984;DHT22;11658;48.908;9.140;2023-08-24T10:08:47;28.00;99.90
22984;DHT22;11658;48.908;9.140;2023-08-24T10:11:19;28.20;99.90
22984;DHT22;11658;48.908;9.140;2023-08-24T10:13:56;28.20;99.90
22984;DHT22;11658;48.908;9.140;2023-08-24T10:16:24;28.10;99.90
22984;DHT22;11658;48.908;9.140;2023-08-24T10:18:52;28.30;99.90
22984;DHT22;11658;48.908;9.140;2023-08-24T10:21:18;28.50;99.90
22984;DHT22;11658;48.908;9.140;2023-08-24T10:23:45;28.60;99.90
22984;DHT22;11658;48.908;9.140;2023-08-24T10:26:12;28.70;99.90
22984;DHT22;11658;48.908;9.140;2023-08-24T10:28:39;28.80;99.90
22984;DHT22;11658;48.908;9.140;2023-08-24T10:31:05;29.00;99.90
22984;DHT22;11658;48.908;9.140;2023-08-24T10:33:32;29.30;99.90
22984;DHT22;11658;48.908;9.140;2023-08-24T10:35:59;29.40;99.90
22984;DHT22;11658;48.908;9.140;2023-08-24T10:38:29;29.80;99.90
22984;DHT22;11658;48.908;9.140;2023-08-24T10:41:02;30.00;99.90
22984;DHT22;11658;48.908;9.140;2023-08-24T10:43:29;30.10;99.90
22984;DHT22;11658;48.908;9.140;2023-08-24T10:46:02;30.20;99.90
22984;DHT22;11658;48.908;9.140;2023-08-24T10:48:31;30.40;99.90
22984;DHT22;11658;48.908;9.140;2023-08-24T10:56:24;30.50;99.90
22984;DHT22;11658;48.908;9.140;2023-08-24T10:59:10;30.50;99.90
22984;DHT22;11658;48.908;9.140;2023-08-24T11:01:39;30.40;99.90
22984;DHT22;11658;48.908;9.140;2023-08-24T11:04:05;30.30;99.90
22984;DHT22;11658;48.908;9.140;2023-08-24T11:06:33;30.20;99.90
22984;DHT22;11658;48.908;9.140;2023-08-24T11:09:07;30.20;99.90
22984;DHT22;11658;48.908;9.140;2023-08-24T11:11:39;30.30;99.90
22984;DHT22;11658;48.908;9.140;2023-08-24T11:14:18;30.40;99.90
22984;DHT22;11658;48.908;9.140;2023-08-24T11:16:58;30.60;99.90
22984;DHT22;11658;48.908;9.140;2023-08-24T11:19:24;30.80;99.90
22984;DHT22;11658;48.908;9.140;2023-08-24T11:21:51;30.80;99.90
22984;DHT22;11658;48.908;9.140;2023-08-24T11:24:17;30.80;99.90
22984;DHT22;11658;48.908;9.140;2023-08-24T11:26:48;31.00;99.90
22984;DHT22;11658;48.908;9.140;2023-08-24T11:29:14;30.80;99.90
22984;DHT22;11658;48.908;9.140;2023-08-24T11:31:41;30.40;99.90
22984;DHT22;11658;48.908;9.140;2023-08-24T11:34:07;30.80;99.90
22984;DHT22;11658;48.908;9.140;2023-08-24T11:37:02;30.80;99.90
22984;DHT22;11658;48.908;9.140;2023-08-24T11:39:28;30.90;99.90
22984;DHT22;11658;48.908;9.140;2023-08-24T11:42:04;30.90;99.90
22984;DHT22;11658;48.908;9.140;2023-08-24T11:44:48;31.00;99.90
22984;DHT22;11658;48.908;9.140;2023-08-24T11:47:14;31.20;99.90
22984;DHT22;11658;48.908;9.140;2023-08-24T11:49:40;31.40;99.90
22984;DHT22;11658;48.908;9.140;2023-08-24T11:52:07;31.60;99.90
22984;DHT22;11658;48.908;9.140;2023-08-24T11:54:33;31.50;99.90
22984;DHT22;11658;48.908;9.140;2023-08-24T11:56:59;31.80;99.90
22984;DHT22;11658;48.908;9.140;2023-08-24T11:59:24;31.70;99.90
22984;DHT22;11658;48.908;9.140;2023-08-24T12:01:51;31.80;99.90
22984;DHT22;11658;48.908;9.140;2023-08-24T12:04:18;32.00;99.90
22984;DHT22;11658;48.908;9.140;2023-08-24T12:06:44;32.00;99.90
22984;DHT22;11658;48.908;9.140;2023-08-24T12:09:09;32.20;99.90
22984;DHT22;11658;48.908;9.140;2023-08-24T12:11:37;32.20;99.90
22984;DHT22;11658;48.908;9.140;2023-08-24T12:14:04;32.30;99.90
22984;DHT22;11658;48.908;9.140;2023-08-24T12:16:32;32.40;99.90
22984;DHT22;11658;48.908;9.140;2023-08-24T12:18:59;32.50;99.90
22984;DHT22;11658;48.908;9.140;2023-08-24T12:21:26;32.50;99.90
22984;DHT22;11658;48.908;9.140;2023-08-24T12:23:59;32.30;99.90
22984;DHT22;11658;48.908;9.140;2023-08-24T12:26:27;32.20;99.90
22984;DHT22;11658;48.908;9.140;2023-08-24T12:28:55;32.20;99.90
22984;DHT22;11658;48.908;9.140;2023-08-24T12:31:20;32.10;99.90
22984;DHT22;11658;48.908;9.140;2023-08-24T12:34:02;32.30;99.90
22984;DHT22;11658;48.908;9.140;2023-08-24T12:36:29;32.60;99.90
22984;DHT22;11658;48.908;9.140;2023-08-24T12:38:54;32.80;99.90
22984;DHT22;11658;48.908;9.140;2023-08-24T12:41:20;33.10;99.90
22984;DHT22;11658;48.908;9.140;2023-08-24T12:43:45;33.20;99.90
22984;DHT22;11658;48.908;9.140;2023-08-24T12:46:11;33.20;99.90
22984;DHT22;11658;48.908;9.140;2023-08-24T12:48:37;33.20;99.90
22984;DHT22;11658;48.908;9.140;2023-08-24T12:51:02;33.40;99.90
22984;DHT22;11658;48.908;9.140;2023-08-24T12:53:28;33.60;99.90
22984;DHT22;11658;48.908;9.140;2023-08-24T12:55:53;33.70;99.90
22984;DHT22;11658;48.908;9.140;2023-08-24T12:58:19;33.70;99.90
22984;DHT22;11658;48.908;9.140;2023-08-24T13:00:45;34.10;99.90
22984;DHT22;11658;48.908;9.140;2023-08-24T13:03:11;34.20;99.90
22984;DHT22;11658;48.908;9.140;2023-08-24T13:05:36;34.20;99.90
22984;DHT22;11658;48.908;9.140;2023-08-24T13:08:02;34.00;99.90
22984;DHT22;11658;48.908;9.140;2023-08-24T13:10:29;34.10;99.90
22984;DHT22;11658;48.908;9.140;2023-08-24T13:12:54;34.10;99.90
22984;DHT22;11658;48.908;9.140;2023-08-24T13:15:21;34.50;99.90
22984;DHT22;11658;48.908;9.140;2023-08-24T13:17:47;34.50;99.90
22984;DHT22;11658;48.908;9.140;2023-08-24T13:20:12;34.60;99.90
22984;DHT22;11658;48.908;9.140;2023-08-24T13:22:38;34.60;99.90
22984;DHT22;11658;48.908;9.140;2023-08-24T13:25:04;34.80;99.90
22984;DHT22;11658;48.908;9.140;2023-08-24T13:27:30;34.90;99.90
22984;DHT22;11658;48.908;9.140;2023-08-24T13:29:59;34.90;99.90
22984;DHT22;11658;48.908;9.140;2023-08-24T13:32:25;34.80;99.90
22984;DHT22;11658;48.908;9.140;2023-08-24T13:34:50;34.80;99.90
22984;DHT22;11658;48.908;9.140;2023-08-24T13:37:20;34.90;99.90
22984;DHT22;11658;48.908;9.140;2023-08-24T13:39:45;34.80;99.90
22984;DHT22;11658;48.908;9.140;2023-08-24T13:42:12;34.70;99.90
22984;DHT22;11658;48.908;9.140;2023-08-24T13:44:38;34.60;99.90
22984;DHT22;11658;48.908;9.140;2023-08-24T13:47:04;34.50;99.90
22984;DHT22;11658;48.908;9.140;2023-08-24T13:49:30;34.50;99.90
22984;DHT22;11658;48.908;9.140;2023-08-24T13:51:55;34.50;99.90
22984;DHT22;11658;48.908;9.140;2023-08-24T13:54:21;34.30;99.90
22984;DHT22;11658;48.908;9.140;2023-08-24T13:56:47;34.10;99.90
22984;DHT22;11658;48.908;9.140;2023-08-24T13:59:14;34.20;99.90
22984;DHT22;11658;48.908;9.140;2023-08-24T14:01:40;34.10;99.90
22984;DHT22;11658;48.908;9.140;2023-08-24T14:04:06;34.30;99.90
22984;DHT22;11658;48.908;9.140;2023-08-24T14:06:33;34.30;99.90
22984;DHT22;11658;48.908;9.140;2023-08-24T14:09:00;34.30;99.90
22984;DHT22;11658;48.908;9.140;2023-08-24T14:11:27;34.30;99.90
22984;DHT22;11658;48.908;9.140;2023-08-24T14:13:53;34.40;99.90
22984;DHT22;11658;48.908;9.140;2023-08-24T14:16:18;34.50;99.90
22984;DHT22;11658;48.908;9.140;2023-08-24T14:18:48;34.40;99.90
22984;DHT22;11658;48.908;9.140;2023-08-24T14:21:14;34.30;99.90
22984;DHT22;11658;48.908;9.140;2023-08-24T14:23:40;34.30;99.90
22984;DHT22;11658;48.908;9.140;2023-08-24T14:26:06;34.20;99.90
22984;DHT22;11658;48.908;9.140;2023-08-24T14:28:51;34.10;99.90
22984;DHT22;11658;48.908;9.140;2023-08-24T14:31:19;34.10;99.90
22984;DHT22;11658;48.908;9.140;2023-08-24T14:33:45;34.10;99.90
22984;DHT22;11658;48.908;9.140;2023-08-24T14:36:11;34.00;99.90
22984;DHT22;11658;48.908;9.140;2023-08-24T14:38:40;33.90;99.90
22984;DHT22;11658;48.908;9.140;2023-08-24T14:41:06;33.60;99.90
22984;DHT22;11658;48.908;9.140;2023-08-24T14:43:32;33.30;99.90
22984;DHT22;11658;48.908;9.140;2023-08-24T14:45:58;33.10;99.90
22984;DHT22;11658;48.908;9.140;2023-08-24T14:48:24;32.90;99.90
22984;DHT22;11658;48.908;9.140;2023-08-24T14:50:49;32.70;99.90
22984;DHT22;11658;48.908;9.140;2023-08-24T14:53:15;32.40;99.90
22984;DHT22;11658;48.908;9.140;2023-08-24T14:55:41;32.20;99.90
22984;DHT22;11658;48.908;9.140;2023-08-24T14:58:07;32.00;99.90
22984;DHT22;11658;48.908;9.140;2023-08-24T15:00:33;31.70;99.90
22984;DHT22;11658;48.908;9.140;2023-08-24T15:02:59;30.20;99.90
22984;DHT22;11658;48.908;9.140;2023-08-24T15:05:24;27.40;99.90
22984;DHT22;11658;48.908;9.140;2023-08-24T15:07:50;24.40;99.90
22984;DHT22;11658;48.908;9.140;2023-08-24T15:10:16;22.90;99.90
22984;DHT22;11658;48.908;9.140;2023-08-24T15:12:43;22.50;99.90
22984;DHT22;11658;48.908;9.140;2023-08-24T15:15:09;22.40;99.90
22984;DHT22;11658;48.908;9.140;2023-08-24T15:17:35;22.40;99.90
22984;DHT22;11658;48.908;9.140;2023-08-24T15:20:02;22.00;99.90
22984;DHT22;11658;48.908;9.140;2023-08-24T15:22:32;21.70;99.90
22984;DHT22;11658;48.908;9.140;2023-08-24T15:24:59;21.60;99.90
22984;DHT22;11658;48.908;9.140;2023-08-24T15:27:25;21.20;99.90
22984;DHT22;11658;48.908;9.140;2023-08-24T15:29:50;21.00;99.90
22984;DHT22;11658;48.908;9.140;2023-08-24T15:32:19;20.90;99.90
22984;DHT22;11658;48.908;9.140;2023-08-24T15:34:45;20.90;99.90
22984;DHT22;11658;48.908;9.140;2023-08-24T15:37:10;21.00;99.90
22984;DHT22;11658;48.908;9.140;2023-08-24T15:39:37;21.00;99.90
22984;DHT22;11658;48.908;9.140;2023-08-24T15:42:04;20.90;99.90
22984;DHT22;11658;48.908;9.140;2023-08-24T15:44:30;20.90;99.90
22984;DHT22;11658;48.908;9.140;2023-08-24T15:46:55;20.80;99.90
22984;DHT22;11658;48.908;9.140;2023-08-24T15:49:22;21.00;99.90
22984;DHT22;11658;48.908;9.140;2023-08-24T15:51:51;21.00;99.90
22984;DHT22;11658;48.908;9.140;2023-08-24T15:54:18;20.90;99.90
22984;DHT22;11658;48.908;9.140;2023-08-24T15:56:43;20.90;99.90
22984;DHT22;11658;48.908;9.140;2023-08-24T15:59:17;20.80;99.90
22984;DHT22;11658;48.908;9.140;2023-08-24T16:01:43;20.80;99.90
22984;DHT22;11658;48.908;9.140;2023-08-24T16:04:08;20.60;99.90
22984;DHT22;11658;48.908;9.140;2023-08-24T16:06:34;20.70;99.90
22984;DHT22;11658;48.908;9.140;2023-08-24T16:08:59;20.70;99.90
22984;DHT22;11658;48.908;9.140;2023-08-24T16:11:25;20.70;99.90
22984;DHT22;11658;48.908;9.140;2023-08-24T16:13:52;20.80;99.90
22984;DHT22;11658;48.908;9.140;2023-08-24T16:16:18;20.70;99.90
22984;DHT22;11658;48.908;9.140;2023-08-24T16:18:44;20.70;99.90
22984;DHT22;11658;48.908;9.140;2023-08-24T16:21:09;20.70;99.90
22984;DHT22;11658;48.908;9.140;2023-08-24T16:23:35;20.80;99.90
22984;DHT22;11658;48.908;9.140;2023-08-24T16:26:01;20.90;99.90
22984;DHT22;11658;48.908;9.140;2023-08-24T16:28:26;21.00;99.90
22984;DHT22;11658;48.908;9.140;2023-08-24T16:30:52;21.20;99.90
22984;DHT22;11658;48.908;9.140;2023-08-24T16:33:18;21.50;99.90
22984;DHT22;11658;48.908;9.140;2023-08-24T16:35:44;21.70;99.90
22984;DHT22;11658;48.908;9.140;2023-08-24T16:38:10;22.00;99.90
22984;DHT22;11658;48.908;9.140;2023-08-24T16:40:36;22.00;99.90
22984;DHT22;11658;48.908;9.140;2023-08-24T16:43:02;22.30;99.90
22984;DHT22;11658;48.908;9.140;2023-08-24T16:45:27;22.50;99.90
22984;DHT22;11658;48.908;9.140;2023-08-24T16:47:53;22.50;99.90
22984;DHT22;11658;48.908;9.140;2023-08-24T16:50:19;22.60;99.90
22984;DHT22;11658;48.908;9.140;2023-08-24T16:52:46;22.60;99.90
22984;DHT22;11658;48.908;9.140;2023-08-24T16:55:11;22.70;99.90
22984;DHT22;11658;48.908;9.140;2023-08-24T16:57:37;22.90;99.90
22984;DHT22;11658;48.908;9.140;2023-08-24T17:00:03;23.00;99.90
22984;DHT22;11658;48.908;9.140;2023-08-24T17:02:29;23.00;99.90
22984;DHT22;11658;48.908;9.140;2023-08-24T17:04:55;23.00;99.90
22984;DHT22;11658;48.908;9.140;2023-08-24T17:07:20;23.10;99.90
22984;DHT22;11658;48.908;9.140;2023-08-24T17:09:48;23.00;99.90
22984;DHT22;11658;48.908;9.140;2023-08-24T17:12:14;23.00;99.90
22984;DHT22;11658;48.908;9.140;2023-08-24T17:14:40;23.00;99.90
22984;DHT22;11658;48.908;9.140;2023-08-24T17:17:05;22.90;99.90
22984;DHT22;11658;48.908;9.140;2023-08-24T17:19:31;23.00;99.90
22984;DHT22;11658;48.908;9.140;2023-08-24T17:21:57;22.90;99.90
22984;DHT22;11658;48.908;9.140;2023-08-24T17:24:23;22.90;99.90
22984;DHT22;11658;48.908;9.140;2023-08-24T17:26:49;22.80;99.90
22984;DHT22;11658;48.908;9.140;2023-08-24T17:29:15;22.70;99.90
22984;DHT22;11658;48.908;9.140;2023-08-24T17:31:41;22.60;99.90
22984;DHT22;11658;48.908;9.140;2023-08-24T17:34:07;22.50;99.90
22984;DHT22;11658;48.908;9.140;2023-08-24T17:36:33;22.50;99.90
22984;DHT22;11658;48.908;9.140;2023-08-24T17:38:58;22.50;99.90
22984;DHT22;11658;48.908;9.140;2023-08-24T17:41:24;22.40;99.90
22984;DHT22;11658;48.908;9.140;2023-08-24T17:43:49;22.40;99.90
22984;DHT22;11658;48.908;9.140;2023-08-24T17:46:15;22.40;99.90
22984;DHT22;11658;48.908;9.140;2023-08-24T17:48:41;22.10;99.90
22984;DHT22;11658;48.908;9.140;2023-08-24T17:51:06;21.90;99.90
22984;DHT22;11658;48.908;9.140;2023-08-24T17:53:33;21.90;99.90
22984;DHT22;11658;48.908;9.140;2023-08-24T17:56:00;22.10;99.90
22984;DHT22;11658;48.908;9.140;2023-08-24T17:58:26;22.10;99.90
22984;DHT22;11658;48.908;9.140;2023-08-24T18:00:53;22.10;99.90
22984;DHT22;11658;48.908;9.140;2023-08-24T18:03:19;22.10;99.90
22984;DHT22;11658;48.908;9.140;2023-08-24T18:05:45;22.00;99.90
22984;DHT22;11658;48.908;9.140;2023-08-24T18:08:11;22.00;99.90
22984;DHT22;11658;48.908;9.140;2023-08-24T18:10:37;21.90;99.90
22984;DHT22;11658;48.908;9.140;2023-08-24T18:13:03;21.90;99.90
22984;DHT22;11658;48.908;9.140;2023-08-24T18:15:36;21.90;99.90
22984;DHT22;11658;48.908;9.140;2023-08-24T18:18:03;21.90;99.90
22984;DHT22;11658;48.908;9.140;2023-08-24T18:20:29;21.80;99.90
22984;DHT22;11658;48.908;9.140;2023-08-24T18:22:55;21.90;99.90
22984;DHT22;11658;48.908;9.140;2023-08-24T18:25:23;21.90;99.90
22984;DHT22;11658;48.908;9.140;2023-08-24T18:27:49;21.90;99.90
22984;DHT22;11658;48.908;9.140;2023-08-24T18:30:15;21.90;99.90
22984;DHT22;11658;48.908;9.140;2023-08-24T18:32:41;21.90;99.90
22984;DHT22;11658;48.908;9.140;2023-08-24T18:35:07;21.80;99.90
22984;DHT22;11658;48.908;9.140;2023-08-24T18:37:32;21.90;99.90
22984;DHT22;11658;48.908;9.140;2023-08-24T18:39:58;21.90;99.90
22984;DHT22;11658;48.908;9.140;2023-08-24T18:42:24;22.00;99.90
22984;DHT22;11658;48.908;9.140;2023-08-24T18:44:51;22.00;99.90
22984;DHT22;11658;48.908;9.140;2023-08-24T18:47:18;22.00;99.90
22984;DHT22;11658;48.908;9.140;2023-08-24T18:49:43;22.10;99.90
22984;DHT22;11658;48.908;9.140;2023-08-24T18:52:09;22.10;99.90
22984;DHT22;11658;48.908;9.140;2023-08-24T18:54:35;22.10;99.90
22984;DHT22;11658;48.908;9.140;2023-08-24T18:57:00;22.10;99.90
22984;DHT22;11658;48.908;9.140;2023-08-24T18:59:26;22.10;99.90
22984;DHT22;11658;48.908;9.140;2023-08-24T19:01:51;22.10;99.90
22984;DHT22;11658;48.908;9.140;2023-08-24T19:04:17;22.00;99.90
22984;DHT22;11658;48.908;9.140;2023-08-24T19:06:42;22.10;99.90
22984;DHT22;11658;48.908;9.140;2023-08-24T19:09:08;22.10;99.90
22984;DHT22;11658;48.908;9.140;2023-08-24T19:11:34;22.10;99.90
22984;DHT22;11658;48.908;9.140;2023-08-24T19:14:00;21.90;99.90
22984;DHT22;11658;48.908;9.140;2023-08-24T19:16:25;21.90;99.90
22984;DHT22;11658;48.908;9.140;2023-08-24T19:18:51;21.90;99.90
22984;DHT22;11658;48.908;9.140;2023-08-24T19:21:17;21.90;99.90
22984;DHT22;11658;48.908;9.140;2023-08-24T19:23:43;21.90;99.90
22984;DHT22;11658;48.908;9.140;2023-08-24T19:26:09;21.80;99.90
22984;DHT22;11658;48.908;9.140;2023-08-24T19:28:35;21.80;99.90
22984;DHT22;11658;48.908;9.140;2023-08-24T19:31:02;21.70;99.90
22984;DHT22;11658;48.908;9.140;2023-08-24T19:33:28;21.70;99.90
22984;DHT22;11658;48.908;9.140;2023-08-24T19:35:54;21.80;99.90